sensor_id;sensor_type;location;lat;lon;timestamp;P1;durP1;ratioP1;P2;durP2;ratioP2
16975;SDS011;8604;48.148;-1.786;2022-08-19T00:01:29;8.57;;;3.60;;
16975;SDS011;8604;48.148;-1.786;2022-08-19T00:04:03;4.93;;;3.20;;
16975;SDS011;8604;48.148;-1.786;2022-08-19T00:06:33;4.90;;;2.87;;
16975;SDS011;8604;48.148;-1.786;2022-08-19T00:09:04;7.30;;;2.60;;
16975;SDS011;8604;48.148;-1.786;2022-08-19T00:11:36;3.70;;;2.40;;
16975;SDS011;8604;48.148;-1.786;2022-08-19T00:14:05;5.57;;;2.77;;
16975;SDS011;8604;48.148;-1.786;2022-08-19T00:16:36;4.80;;;2.57;;
16975;SDS011;8604;48.148;-1.786;2022-08-19T00:19:05;4.80;;;2.50;;
16975;SDS011;8604;48.148;-1.786;2022-08-19T00:21:33;7.07;;;2.80;;
16975;SDS011;8604;48.148;-1.786;2022-08-19T00:24:06;4.90;;;2.60;;
16975;SDS011;8604;48.148;-1.786;2022-08-19T00:26:36;5.57;;;2.60;;
16975;SDS011;8604;48.148;-1.786;2022-08-19T00:29:06;6.47;;;2.47;;
16975;SDS011;8604;48.148;-1.786;2022-08-19T00:31:35;5.17;;;2.50;;
16975;SDS011;8604;48.148;-1.786;2022-08-19T00:34:03;3.77;;;2.30;;
16975;SDS011;8604;48.148;-1.786;2022-08-19T00:36:32;4.43;;;2.20;;
16975;SDS011;8604;48.148;-1.786;2022-08-19T00:39:00;5.77;;;2.40;;
16975;SDS011;8604;48.148;-1.786;2022-08-19T00:41:30;4.63;;;2.33;;
16975;SDS011;8604;48.148;-1.786;2022-08-19T00:43:59;5.63;;;2.10;;
16975;SDS011;8604;48.148;-1.786;2022-08-19T00:46:30;5.90;;;2.53;;
16975;SDS011;8604;48.148;-1.786;2022-08-19T00:49:00;4.93;;;2.17;;
16975;SDS011;8604;48.148;-1.786;2022-08-19T00:51:34;3.20;;;1.90;;
16975;SDS011;8604;48.148;-1.786;2022-08-19T00:54:02;3.07;;;2.03;;
16975;SDS011;8604;48.148;-1.786;2022-08-19T00:56:32;5.00;;;2.40;;
16975;SDS011;8604;48.148;-1.786;2022-08-19T00:59:02;5.87;;;2.20;;
16975;SDS011;8604;48.148;-1.786;2022-08-19T01:01:35;8.67;;;2.50;;
16975;SDS011;8604;48.148;-1.786;2022-08-19T01:04:04;3.83;;;2.20;;
16975;SDS011;8604;48.148;-1.786;2022-08-19T01:06:32;5.10;;;2.00;;
16975;SDS011;8604;48.148;-1.786;2022-08-19T01:09:03;3.37;;;2.00;;
16975;SDS011;8604;48.148;-1.786;2022-08-19T01:11:35;6.43;;;2.20;;
16975;SDS011;8604;48.148;-1.786;2022-08-19T01:14:06;6.33;;;2.57;;
16975;SDS011;8604;48.148;-1.786;2022-08-19T01:16:36;5.20;;;2.10;;
16975;SDS011;8604;48.148;-1.786;2022-08-19T01:19:08;5.47;;;2.37;;
16975;SDS011;8604;48.148;-1.786;2022-08-19T01:21:41;3.77;;;1.90;;
16975;SDS011;8604;48.148;-1.786;2022-08-19T01:24:16;7.80;;;2.40;;
16975;SDS011;8604;48.148;-1.786;2022-08-19T01:26:45;3.60;;;2.13;;
16975;SDS011;8604;48.148;-1.786;2022-08-19T01:29:14;5.90;;;2.20;;
16975;SDS011;8604;48.148;-1.786;2022-08-19T01:31:43;6.37;;;2.53;;
16975;SDS011;8604;48.148;-1.786;2022-08-19T01:34:11;5.17;;;2.60;;
16975;SDS011;8604;48.148;-1.786;2022-08-19T01:36:41;5.83;;;2.67;;
16975;SDS011;8604;48.148;-1.786;2022-08-19T01:39:15;6.43;;;2.77;;
16975;SDS011;8604;48.148;-1.786;2022-08-19T01:41:47;5.67;;;2.70;;
16975;SDS011;8604;48.148;-1.786;2022-08-19T01:44:16;7.47;;;2.90;;
16975;SDS011;8604;48.148;-1.786;2022-08-19T01:46:47;7.70;;;3.10;;
16975;SDS011;8604;48.148;-1.786;2022-08-19T01:49:16;4.43;;;2.83;;
16975;SDS011;8604;48.148;-1.786;2022-08-19T01:51:46;5.20;;;3.00;;
16975;SDS011;8604;48.148;-1.786;2022-08-19T01:54:16;5.40;;;2.97;;
16975;SDS011;8604;48.148;-1.786;2022-08-19T01:56:54;8.37;;;3.10;;
16975;SDS011;8604;48.148;-1.786;2022-08-19T01:59:25;5.83;;;3.00;;
16975;SDS011;8604;48.148;-1.786;2022-08-19T02:01:54;7.13;;;3.20;;
16975;SDS011;8604;48.148;-1.786;2022-08-19T02:04:22;4.80;;;2.90;;
16975;SDS011;8604;48.148;-1.786;2022-08-19T02:06:51;4.97;;;3.30;;
16975;SDS011;8604;48.148;-1.786;2022-08-19T02:09:21;5.97;;;3.10;;
16975;SDS011;8604;48.148;-1.786;2022-08-19T02:11:49;7.97;;;3.17;;
16975;SDS011;8604;48.148;-1.786;2022-08-19T02:14:18;5.83;;;2.80;;
16975;SDS011;8604;48.148;-1.786;2022-08-19T02:16:46;6.97;;;3.30;;
16975;SDS011;8604;48.148;-1.786;2022-08-19T02:19:14;6.40;;;3.00;;
16975;SDS011;8604;48.148;-1.786;2022-08-19T02:21:44;5.17;;;2.70;;
16975;SDS011;8604;48.148;-1.786;2022-08-19T02:24:12;7.27;;;3.10;;
16975;SDS011;8604;48.148;-1.786;2022-08-19T02:26:42;8.23;;;3.13;;
16975;SDS011;8604;48.148;-1.786;2022-08-19T02:29:10;8.53;;;3.37;;
16975;SDS011;8604;48.148;-1.786;2022-08-19T02:31:38;8.97;;;3.30;;
16975;SDS011;8604;48.148;-1.786;2022-08-19T02:34:07;6.27;;;2.90;;
16975;SDS011;8604;48.148;-1.786;2022-08-19T02:36:35;7.13;;;3.37;;
16975;SDS011;8604;48.148;-1.786;2022-08-19T02:39:08;5.00;;;2.93;;
16975;SDS011;8604;48.148;-1.786;2022-08-19T02:41:35;6.10;;;3.23;;
16975;SDS011;8604;48.148;-1.786;2022-08-19T02:44:05;8.00;;;3.37;;
16975;SDS011;8604;48.148;-1.786;2022-08-19T02:46:53;6.60;;;3.10;;
16975;SDS011;8604;48.148;-1.786;2022-08-19T02:49:22;5.77;;;2.83;;
16975;SDS011;8604;48.148;-1.786;2022-08-19T02:51:50;6.77;;;3.30;;
16975;SDS011;8604;48.148;-1.786;2022-08-19T02:54:18;5.57;;;2.70;;
16975;SDS011;8604;48.148;-1.786;2022-08-19T02:56:48;9.90;;;3.37;;
16975;SDS011;8604;48.148;-1.786;2022-08-19T02:59:17;7.03;;;3.40;;
16975;SDS011;8604;48.148;-1.786;2022-08-19T03:01:48;7.90;;;3.70;;
16975;SDS011;8604;48.148;-1.786;2022-08-19T03:04:17;6.17;;;3.27;;
16975;SDS011;8604;48.148;-1.786;2022-08-19T03:06:47;7.20;;;3.67;;
16975;SDS011;8604;48.148;-1.786;2022-08-19T03:09:15;5.93;;;3.57;;
16975;SDS011;8604;48.148;-1.786;2022-08-19T03:11:45;7.30;;;3.03;;
16975;SDS011;8604;48.148;-1.786;2022-08-19T03:14:19;7.13;;;3.10;;
16975;SDS011;8604;48.148;-1.786;2022-08-19T03:16:48;6.07;;;3.00;;
16975;SDS011;8604;48.148;-1.786;2022-08-19T03:19:18;7.00;;;2.87;;
16975;SDS011;8604;48.148;-1.786;2022-08-19T03:21:48;6.73;;;3.00;;
16975;SDS011;8604;48.148;-1.786;2022-08-19T03:24:17;6.37;;;3.40;;
16975;SDS011;8604;48.148;-1.786;2022-08-19T03:26:48;7.47;;;2.83;;
16975;SDS011;8604;48.148;-1.786;2022-08-19T03:29:20;3.97;;;2.70;;
16975;SDS011;8604;48.148;-1.786;2022-08-19T03:31:56;5.33;;;3.03;;
16975;SDS011;8604;48.148;-1.786;2022-08-19T03:34:28;2.97;;;2.30;;
16975;SDS011;8604;48.148;-1.786;2022-08-19T03:36:58;5.73;;;2.60;;
16975;SDS011;8604;48.148;-1.786;2022-08-19T03:39:30;6.43;;;2.87;;
16975;SDS011;8604;48.148;-1.786;2022-08-19T03:41:58;6.23;;;2.97;;
16975;SDS011;8604;48.148;-1.786;2022-08-19T03:44:50;4.70;;;2.70;;
16975;SDS011;8604;48.148;-1.786;2022-08-19T03:47:19;7.03;;;2.70;;
16975;SDS011;8604;48.148;-1.786;2022-08-19T03:49:47;4.03;;;2.43;;
16975;SDS011;8604;48.148;-1.786;2022-08-19T03:52:15;8.60;;;3.00;;
16975;SDS011;8604;48.148;-1.786;2022-08-19T03:54:44;6.23;;;2.83;;
16975;SDS011;8604;48.148;-1.786;2022-08-19T03:57:12;6.10;;;3.07;;
16975;SDS011;8604;48.148;-1.786;2022-08-19T03:59:40;4.50;;;2.90;;
16975;SDS011;8604;48.148;-1.786;2022-08-19T04:02:11;4.90;;;2.93;;
16975;SDS011;8604;48.148;-1.786;2022-08-19T04:04:41;5.47;;;3.00;;
16975;SDS011;8604;48.148;-1.786;2022-08-19T04:07:11;4.67;;;3.00;;
16975;SDS011;8604;48.148;-1.786;2022-08-19T04:09:42;6.87;;;3.20;;
16975;SDS011;8604;48.148;-1.786;2022-08-19T04:12:10;7.43;;;3.10;;
16975;SDS011;8604;48.148;-1.786;2022-08-19T04:14:39;5.67;;;2.90;;
16975;SDS011;8604;48.148;-1.786;2022-08-19T04:17:07;5.33;;;2.90;;
16975;SDS011;8604;48.148;-1.786;2022-08-19T04:19:37;4.73;;;2.57;;
16975;SDS011;8604;48.148;-1.786;2022-08-19T04:22:05;7.43;;;3.20;;
16975;SDS011;8604;48.148;-1.786;2022-08-19T04:24:34;5.67;;;2.93;;
16975;SDS011;8604;48.148;-1.786;2022-08-19T04:27:03;5.93;;;3.03;;
16975;SDS011;8604;48.148;-1.786;2022-08-19T04:29:32;5.20;;;2.50;;
16975;SDS011;8604;48.148;-1.786;2022-08-19T04:32:01;4.37;;;2.93;;
16975;SDS011;8604;48.148;-1.786;2022-08-19T04:34:36;7.00;;;3.30;;
16975;SDS011;8604;48.148;-1.786;2022-08-19T04:37:25;5.13;;;2.90;;
16975;SDS011;8604;48.148;-1.786;2022-08-19T04:40:02;4.93;;;3.07;;
16975;SDS011;8604;48.148;-1.786;2022-08-19T04:42:49;4.50;;;2.87;;
16975;SDS011;8604;48.148;-1.786;2022-08-19T04:45:18;7.57;;;3.20;;
16975;SDS011;8604;48.148;-1.786;2022-08-19T04:47:48;6.10;;;3.13;;
16975;SDS011;8604;48.148;-1.786;2022-08-19T04:50:40;7.47;;;3.43;;
16975;SDS011;8604;48.148;-1.786;2022-08-19T04:53:10;5.30;;;3.00;;
16975;SDS011;8604;48.148;-1.786;2022-08-19T04:55:39;5.17;;;3.07;;
16975;SDS011;8604;48.148;-1.786;2022-08-19T04:58:08;5.27;;;3.33;;
16975;SDS011;8604;48.148;-1.786;2022-08-19T05:00:37;4.90;;;3.03;;
16975;SDS011;8604;48.148;-1.786;2022-08-19T05:03:07;3.70;;;2.70;;
16975;SDS011;8604;48.148;-1.786;2022-08-19T05:05:38;8.03;;;3.63;;
16975;SDS011;8604;48.148;-1.786;2022-08-19T05:08:11;5.87;;;3.53;;
16975;SDS011;8604;48.148;-1.786;2022-08-19T05:10:41;6.27;;;3.20;;
16975;SDS011;8604;48.148;-1.786;2022-08-19T05:13:10;6.33;;;3.17;;
16975;SDS011;8604;48.148;-1.786;2022-08-19T05:15:39;6.57;;;3.10;;
16975;SDS011;8604;48.148;-1.786;2022-08-19T05:18:07;5.27;;;3.40;;
16975;SDS011;8604;48.148;-1.786;2022-08-19T05:20:55;6.63;;;3.33;;
16975;SDS011;8604;48.148;-1.786;2022-08-19T05:23:40;9.20;;;3.47;;
16975;SDS011;8604;48.148;-1.786;2022-08-19T05:26:10;6.43;;;3.20;;
16975;SDS011;8604;48.148;-1.786;2022-08-19T05:28:39;5.43;;;3.23;;
16975;SDS011;8604;48.148;-1.786;2022-08-19T05:31:07;5.40;;;3.20;;
16975;SDS011;8604;48.148;-1.786;2022-08-19T05:33:35;5.80;;;3.23;;
16975;SDS011;8604;48.148;-1.786;2022-08-19T05:36:07;5.37;;;3.23;;
16975;SDS011;8604;48.148;-1.786;2022-08-19T05:38:35;4.43;;;3.20;;
16975;SDS011;8604;48.148;-1.786;2022-08-19T05:41:06;8.77;;;3.30;;
16975;SDS011;8604;48.148;-1.786;2022-08-19T05:43:35;7.17;;;3.33;;
16975;SDS011;8604;48.148;-1.786;2022-08-19T05:46:05;6.90;;;3.10;;
16975;SDS011;8604;48.148;-1.786;2022-08-19T05:48:45;5.93;;;3.37;;
16975;SDS011;8604;48.148;-1.786;2022-08-19T05:51:51;7.77;;;3.40;;
16975;SDS011;8604;48.148;-1.786;2022-08-19T05:54:33;4.93;;;3.20;;
16975;SDS011;8604;48.148;-1.786;2022-08-19T05:57:19;6.23;;;3.60;;
16975;SDS011;8604;48.148;-1.786;2022-08-19T05:59:47;5.90;;;3.40;;
16975;SDS011;8604;48.148;-1.786;2022-08-19T06:02:26;6.43;;;3.47;;
16975;SDS011;8604;48.148;-1.786;2022-08-19T06:05:13;5.63;;;3.40;;
16975;SDS011;8604;48.148;-1.786;2022-08-19T06:07:57;6.67;;;3.73;;
16975;SDS011;8604;48.148;-1.786;2022-08-19T06:10:27;6.23;;;3.60;;
16975;SDS011;8604;48.148;-1.786;2022-08-19T06:13:22;7.77;;;3.90;;
16975;SDS011;8604;48.148;-1.786;2022-08-19T06:16:17;11.63;;;3.73;;
16975;SDS011;8604;48.148;-1.786;2022-08-19T06:18:56;5.57;;;3.80;;
16975;SDS011;8604;48.148;-1.786;2022-08-19T06:21:37;5.87;;;3.60;;
16975;SDS011;8604;48.148;-1.786;2022-08-19T06:24:39;7.50;;;3.80;;
16975;SDS011;8604;48.148;-1.786;2022-08-19T06:27:24;6.23;;;3.50;;
16975;SDS011;8604;48.148;-1.786;2022-08-19T06:30:26;7.47;;;3.67;;
16975;SDS011;8604;48.148;-1.786;2022-08-19T06:32:56;6.10;;;3.73;;
16975;SDS011;8604;48.148;-1.786;2022-08-19T06:35:27;8.67;;;3.83;;
16975;SDS011;8604;48.148;-1.786;2022-08-19T06:38:06;6.73;;;3.77;;
16975;SDS011;8604;48.148;-1.786;2022-08-19T06:41:04;7.70;;;3.87;;
16975;SDS011;8604;48.148;-1.786;2022-08-19T06:43:40;6.93;;;4.20;;
16975;SDS011;8604;48.148;-1.786;2022-08-19T06:46:12;6.57;;;4.10;;
16975;SDS011;8604;48.148;-1.786;2022-08-19T06:48:41;6.60;;;4.33;;
16975;SDS011;8604;48.148;-1.786;2022-08-19T06:51:11;7.30;;;3.90;;
16975;SDS011;8604;48.148;-1.786;2022-08-19T06:53:45;7.70;;;4.03;;
16975;SDS011;8604;48.148;-1.786;2022-08-19T06:56:16;6.17;;;3.80;;
16975;SDS011;8604;48.148;-1.786;2022-08-19T06:58:45;6.03;;;4.10;;
16975;SDS011;8604;48.148;-1.786;2022-08-19T07:01:19;6.30;;;4.10;;
16975;SDS011;8604;48.148;-1.786;2022-08-19T07:03:48;6.67;;;4.10;;
16975;SDS011;8604;48.148;-1.786;2022-08-19T07:06:16;6.60;;;4.07;;
16975;SDS011;8604;48.148;-1.786;2022-08-19T07:09:07;8.90;;;4.40;;
16975;SDS011;8604;48.148;-1.786;2022-08-19T07:11:41;8.63;;;4.40;;
16975;SDS011;8604;48.148;-1.786;2022-08-19T07:14:12;6.13;;;3.97;;
16975;SDS011;8604;48.148;-1.786;2022-08-19T07:16:45;7.90;;;4.20;;
16975;SDS011;8604;48.148;-1.786;2022-08-19T07:19:15;6.77;;;4.03;;
16975;SDS011;8604;48.148;-1.786;2022-08-19T07:21:45;6.73;;;4.30;;
16975;SDS011;8604;48.148;-1.786;2022-08-19T07:24:16;9.00;;;4.70;;
16975;SDS011;8604;48.148;-1.786;2022-08-19T07:26:46;8.13;;;4.87;;
16975;SDS011;8604;48.148;-1.786;2022-08-19T07:29:18;6.90;;;4.37;;
16975;SDS011;8604;48.148;-1.786;2022-08-19T07:31:51;7.80;;;4.10;;
16975;SDS011;8604;48.148;-1.786;2022-08-19T07:34:23;8.43;;;4.50;;
16975;SDS011;8604;48.148;-1.786;2022-08-19T07:36:52;8.07;;;4.00;;
16975;SDS011;8604;48.148;-1.786;2022-08-19T07:39:22;7.40;;;4.43;;
16975;SDS011;8604;48.148;-1.786;2022-08-19T07:41:54;8.83;;;4.27;;
16975;SDS011;8604;48.148;-1.786;2022-08-19T07:44:24;6.80;;;4.03;;
16975;SDS011;8604;48.148;-1.786;2022-08-19T07:46:53;7.27;;;4.30;;
16975;SDS011;8604;48.148;-1.786;2022-08-19T07:49:23;11.00;;;4.60;;
16975;SDS011;8604;48.148;-1.786;2022-08-19T07:51:53;10.23;;;4.67;;
16975;SDS011;8604;48.148;-1.786;2022-08-19T07:54:23;7.57;;;4.40;;
16975;SDS011;8604;48.148;-1.786;2022-08-19T07:56:55;10.27;;;4.57;;
16975;SDS011;8604;48.148;-1.786;2022-08-19T07:59:24;9.87;;;4.20;;
16975;SDS011;8604;48.148;-1.786;2022-08-19T08:01:52;9.20;;;4.37;;
16975;SDS011;8604;48.148;-1.786;2022-08-19T08:04:20;10.90;;;4.53;;
16975;SDS011;8604;48.148;-1.786;2022-08-19T08:07:07;7.47;;;4.00;;
16975;SDS011;8604;48.148;-1.786;2022-08-19T08:09:57;9.23;;;4.13;;
16975;SDS011;8604;48.148;-1.786;2022-08-19T08:12:32;8.80;;;4.17;;
16975;SDS011;8604;48.148;-1.786;2022-08-19T08:15:03;7.73;;;4.10;;
16975;SDS011;8604;48.148;-1.786;2022-08-19T08:17:38;6.83;;;3.67;;
16975;SDS011;8604;48.148;-1.786;2022-08-19T08:20:15;7.07;;;3.57;;
16975;SDS011;8604;48.148;-1.786;2022-08-19T08:22:53;7.13;;;3.70;;
16975;SDS011;8604;48.148;-1.786;2022-08-19T08:25:38;9.67;;;3.90;;
16975;SDS011;8604;48.148;-1.786;2022-08-19T08:28:08;9.03;;;4.00;;
16975;SDS011;8604;48.148;-1.786;2022-08-19T08:30:43;6.77;;;3.57;;
16975;SDS011;8604;48.148;-1.786;2022-08-19T08:33:17;6.50;;;3.50;;
16975;SDS011;8604;48.148;-1.786;2022-08-19T08:36:00;7.70;;;3.70;;
16975;SDS011;8604;48.148;-1.786;2022-08-19T08:38:30;6.63;;;3.07;;
16975;SDS011;8604;48.148;-1.786;2022-08-19T08:41:06;7.03;;;3.30;;
16975;SDS011;8604;48.148;-1.786;2022-08-19T08:43:48;5.97;;;3.10;;
16975;SDS011;8604;48.148;-1.786;2022-08-19T08:46:19;7.28;;;2.97;;
16975;SDS011;8604;48.148;-1.786;2022-08-19T08:48:59;5.65;;;2.75;;
16975;SDS011;8604;48.148;-1.786;2022-08-19T08:51:37;6.10;;;2.90;;
16975;SDS011;8604;48.148;-1.786;2022-08-19T08:54:10;6.40;;;2.73;;
16975;SDS011;8604;48.148;-1.786;2022-08-19T08:56:41;7.47;;;2.80;;
16975;SDS011;8604;48.148;-1.786;2022-08-19T08:59:15;6.40;;;2.80;;
16975;SDS011;8604;48.148;-1.786;2022-08-19T09:01:48;7.40;;;3.20;;
16975;SDS011;8604;48.148;-1.786;2022-08-19T09:04:16;6.20;;;2.60;;
16975;SDS011;8604;48.148;-1.786;2022-08-19T09:06:48;5.53;;;2.40;;
16975;SDS011;8604;48.148;-1.786;2022-08-19T09:09:25;6.00;;;3.00;;
16975;SDS011;8604;48.148;-1.786;2022-08-19T09:12:00;5.13;;;2.77;;
16975;SDS011;8604;48.148;-1.786;2022-08-19T09:14:43;6.20;;;2.97;;
16975;SDS011;8604;48.148;-1.786;2022-08-19T09:17:18;5.50;;;2.60;;
16975;SDS011;8604;48.148;-1.786;2022-08-19T09:19:56;6.17;;;2.87;;
16975;SDS011;8604;48.148;-1.786;2022-08-19T09:22:27;5.43;;;2.33;;
16975;SDS011;8604;48.148;-1.786;2022-08-19T09:24:55;6.10;;;2.70;;
16975;SDS011;8604;48.148;-1.786;2022-08-19T09:27:25;5.57;;;2.53;;
16975;SDS011;8604;48.148;-1.786;2022-08-19T09:30:13;4.77;;;2.60;;
16975;SDS011;8604;48.148;-1.786;2022-08-19T09:32:46;6.27;;;2.60;;
16975;SDS011;8604;48.148;-1.786;2022-08-19T09:35:19;6.00;;;2.90;;
16975;SDS011;8604;48.148;-1.786;2022-08-19T09:37:57;7.17;;;3.00;;
16975;SDS011;8604;48.148;-1.786;2022-08-19T09:40:29;7.30;;;3.07;;
16975;SDS011;8604;48.148;-1.786;2022-08-19T09:43:04;6.07;;;2.70;;
16975;SDS011;8604;48.148;-1.786;2022-08-19T09:46:01;5.97;;;2.70;;
16975;SDS011;8604;48.148;-1.786;2022-08-19T09:48:32;6.17;;;2.77;;
16975;SDS011;8604;48.148;-1.786;2022-08-19T09:51:10;6.20;;;2.70;;
16975;SDS011;8604;48.148;-1.786;2022-08-19T09:53:42;7.87;;;2.97;;
16975;SDS011;8604;48.148;-1.786;2022-08-19T09:56:12;9.17;;;3.07;;
16975;SDS011;8604;48.148;-1.786;2022-08-19T09:59:03;6.77;;;2.87;;
16975;SDS011;8604;48.148;-1.786;2022-08-19T10:01:41;7.40;;;3.07;;
16975;SDS011;8604;48.148;-1.786;2022-08-19T10:04:11;5.80;;;2.67;;
16975;SDS011;8604;48.148;-1.786;2022-08-19T10:06:45;5.13;;;2.30;;
16975;SDS011;8604;48.148;-1.786;2022-08-19T10:09:19;5.77;;;2.27;;
16975;SDS011;8604;48.148;-1.786;2022-08-19T10:12:02;5.20;;;1.87;;
16975;SDS011;8604;48.148;-1.786;2022-08-19T10:14:37;7.67;;;2.23;;
16975;SDS011;8604;48.148;-1.786;2022-08-19T10:17:07;3.77;;;1.90;;
16975;SDS011;8604;48.148;-1.786;2022-08-19T10:19:45;5.27;;;1.97;;
16975;SDS011;8604;48.148;-1.786;2022-08-19T10:22:21;5.93;;;2.47;;
16975;SDS011;8604;48.148;-1.786;2022-08-19T10:24:52;4.83;;;2.00;;
16975;SDS011;8604;48.148;-1.786;2022-08-19T10:27:20;4.80;;;1.97;;
16975;SDS011;8604;48.148;-1.786;2022-08-19T10:30:05;4.20;;;1.77;;
16975;SDS011;8604;48.148;-1.786;2022-08-19T10:32:38;5.20;;;1.80;;
16975;SDS011;8604;48.148;-1.786;2022-08-19T10:35:13;4.83;;;2.03;;
16975;SDS011;8604;48.148;-1.786;2022-08-19T10:37:47;6.47;;;2.03;;
16975;SDS011;8604;48.148;-1.786;2022-08-19T10:40:28;3.70;;;1.83;;
16975;SDS011;8604;48.148;-1.786;2022-08-19T10:42:57;4.67;;;1.80;;
16975;SDS011;8604;48.148;-1.786;2022-08-19T10:45:26;4.77;;;1.90;;
16975;SDS011;8604;48.148;-1.786;2022-08-19T10:47:56;5.33;;;2.17;;
16975;SDS011;8604;48.148;-1.786;2022-08-19T10:50:25;4.70;;;2.00;;
16975;SDS011;8604;48.148;-1.786;2022-08-19T10:53:18;4.23;;;2.07;;
16975;SDS011;8604;48.148;-1.786;2022-08-19T10:55:51;6.80;;;2.33;;
16975;SDS011;8604;48.148;-1.786;2022-08-19T10:58:37;5.83;;;2.50;;
16975;SDS011;8604;48.148;-1.786;2022-08-19T11:01:20;6.13;;;2.30;;
16975;SDS011;8604;48.148;-1.786;2022-08-19T11:03:50;5.50;;;2.10;;
16975;SDS011;8604;48.148;-1.786;2022-08-19T11:06:19;4.90;;;2.13;;
16975;SDS011;8604;48.148;-1.786;2022-08-19T11:08:47;12.30;;;2.20;;
16975;SDS011;8604;48.148;-1.786;2022-08-19T11:11:17;6.73;;;2.00;;
16975;SDS011;8604;48.148;-1.786;2022-08-19T11:13:46;6.17;;;2.00;;
16975;SDS011;8604;48.148;-1.786;2022-08-19T11:16:18;4.57;;;1.70;;
16975;SDS011;8604;48.148;-1.786;2022-08-19T11:18:51;4.47;;;1.80;;
16975;SDS011;8604;48.148;-1.786;2022-08-19T11:21:22;5.17;;;1.80;;
16975;SDS011;8604;48.148;-1.786;2022-08-19T11:23:54;5.20;;;1.90;;
16975;SDS011;8604;48.148;-1.786;2022-08-19T11:29:25;6.03;;;1.93;;
16975;SDS011;8604;48.148;-1.786;2022-08-19T11:31:54;13.70;;;2.33;;
16975;SDS011;8604;48.148;-1.786;2022-08-19T11:34:25;4.40;;;1.60;;
16975;SDS011;8604;48.148;-1.786;2022-08-19T11:36:55;4.80;;;1.80;;
16975;SDS011;8604;48.148;-1.786;2022-08-19T11:39:27;3.57;;;1.70;;
16975;SDS011;8604;48.148;-1.786;2022-08-19T11:41:57;4.73;;;1.97;;
16975;SDS011;8604;48.148;-1.786;2022-08-19T11:44:27;4.10;;;1.77;;
16975;SDS011;8604;48.148;-1.786;2022-08-19T11:46:56;4.03;;;1.90;;
16975;SDS011;8604;48.148;-1.786;2022-08-19T11:49:36;3.07;;;1.60;;
16975;SDS011;8604;48.148;-1.786;2022-08-19T11:52:05;4.60;;;1.90;;
16975;SDS011;8604;48.148;-1.786;2022-08-19T11:54:34;2.83;;;1.70;;
16975;SDS011;8604;48.148;-1.786;2022-08-19T11:57:03;4.87;;;1.90;;
16975;SDS011;8604;48.148;-1.786;2022-08-19T11:59:32;3.80;;;1.87;;
16975;SDS011;8604;48.148;-1.786;2022-08-19T12:02:00;3.47;;;1.77;;
16975;SDS011;8604;48.148;-1.786;2022-08-19T12:04:28;3.47;;;1.60;;
16975;SDS011;8604;48.148;-1.786;2022-08-19T12:06:58;2.20;;;1.20;;
16975;SDS011;8604;48.148;-1.786;2022-08-19T12:09:28;3.80;;;1.10;;
16975;SDS011;8604;48.148;-1.786;2022-08-19T12:11:58;2.07;;;1.10;;
16975;SDS011;8604;48.148;-1.786;2022-08-19T12:14:28;3.63;;;1.20;;
16975;SDS011;8604;48.148;-1.786;2022-08-19T12:16:58;2.73;;;1.20;;
16975;SDS011;8604;48.148;-1.786;2022-08-19T12:19:26;3.03;;;1.33;;
16975;SDS011;8604;48.148;-1.786;2022-08-19T12:21:59;1.47;;;0.87;;
16975;SDS011;8604;48.148;-1.786;2022-08-19T12:24:30;3.53;;;1.20;;
16975;SDS011;8604;48.148;-1.786;2022-08-19T12:26:58;1.37;;;1.00;;
16975;SDS011;8604;48.148;-1.786;2022-08-19T12:29:29;2.87;;;1.17;;
16975;SDS011;8604;48.148;-1.786;2022-08-19T12:31:57;3.83;;;1.10;;
16975;SDS011;8604;48.148;-1.786;2022-08-19T12:34:30;1.30;;;1.03;;
16975;SDS011;8604;48.148;-1.786;2022-08-19T12:37:02;2.23;;;1.10;;
16975;SDS011;8604;48.148;-1.786;2022-08-19T12:39:34;2.57;;;1.13;;
16975;SDS011;8604;48.148;-1.786;2022-08-19T12:42:03;2.70;;;1.10;;
16975;SDS011;8604;48.148;-1.786;2022-08-19T12:44:33;4.30;;;1.30;;
16975;SDS011;8604;48.148;-1.786;2022-08-19T12:47:02;1.40;;;1.00;;
16975;SDS011;8604;48.148;-1.786;2022-08-19T12:49:34;2.03;;;0.90;;
16975;SDS011;8604;48.148;-1.786;2022-08-19T12:52:23;1.57;;;0.97;;
16975;SDS011;8604;48.148;-1.786;2022-08-19T12:54:54;4.63;;;1.03;;
16975;SDS011;8604;48.148;-1.786;2022-08-19T12:57:25;1.37;;;0.90;;
16975;SDS011;8604;48.148;-1.786;2022-08-19T12:59:59;2.23;;;1.20;;
16975;SDS011;8604;48.148;-1.786;2022-08-19T13:02:31;3.47;;;1.10;;
16975;SDS011;8604;48.148;-1.786;2022-08-19T13:05:06;3.40;;;1.20;;
16975;SDS011;8604;48.148;-1.786;2022-08-19T13:07:38;3.43;;;1.27;;
16975;SDS011;8604;48.148;-1.786;2022-08-19T13:10:08;1.63;;;1.10;;
16975;SDS011;8604;48.148;-1.786;2022-08-19T13:12:37;3.50;;;1.40;;
16975;SDS011;8604;48.148;-1.786;2022-08-19T13:15:07;3.83;;;1.40;;
16975;SDS011;8604;48.148;-1.786;2022-08-19T13:17:38;2.90;;;1.43;;
16975;SDS011;8604;48.148;-1.786;2022-08-19T13:20:07;5.67;;;1.80;;
16975;SDS011;8604;48.148;-1.786;2022-08-19T13:22:39;4.17;;;1.40;;
16975;SDS011;8604;48.148;-1.786;2022-08-19T13:25:07;5.40;;;1.67;;
16975;SDS011;8604;48.148;-1.786;2022-08-19T13:27:36;4.23;;;1.60;;
16975;SDS011;8604;48.148;-1.786;2022-08-19T13:30:07;4.37;;;1.50;;
16975;SDS011;8604;48.148;-1.786;2022-08-19T13:32:55;5.47;;;1.73;;
16975;SDS011;8604;48.148;-1.786;2022-08-19T13:35:43;5.53;;;1.80;;
16975;SDS011;8604;48.148;-1.786;2022-08-19T13:38:15;2.60;;;1.13;;
16975;SDS011;8604;48.148;-1.786;2022-08-19T13:40:45;1.00;;;0.43;;
16975;SDS011;8604;48.148;-1.786;2022-08-19T13:43:17;2.30;;;0.60;;
16975;SDS011;8604;48.148;-1.786;2022-08-19T13:45:49;4.23;;;0.50;;
16975;SDS011;8604;48.148;-1.786;2022-08-19T13:48:23;2.53;;;0.50;;
16975;SDS011;8604;48.148;-1.786;2022-08-19T13:50:53;3.03;;;0.50;;
16975;SDS011;8604;48.148;-1.786;2022-08-19T13:53:23;2.23;;;0.40;;
16975;SDS011;8604;48.148;-1.786;2022-08-19T13:55:51;3.40;;;0.53;;
16975;SDS011;8604;48.148;-1.786;2022-08-19T13:58:20;1.43;;;0.40;;
16975;SDS011;8604;48.148;-1.786;2022-08-19T14:00:49;3.40;;;0.40;;
16975;SDS011;8604;48.148;-1.786;2022-08-19T14:03:19;1.87;;;0.40;;
16975;SDS011;8604;48.148;-1.786;2022-08-19T14:06:11;4.97;;;1.90;;
16975;SDS011;8604;48.148;-1.786;2022-08-19T14:08:41;3.10;;;1.50;;
16975;SDS011;8604;48.148;-1.786;2022-08-19T14:11:12;2.20;;;0.43;;
16975;SDS011;8604;48.148;-1.786;2022-08-19T14:13:40;0.50;;;0.30;;
16975;SDS011;8604;48.148;-1.786;2022-08-19T14:16:09;0.80;;;0.30;;
16975;SDS011;8604;48.148;-1.786;2022-08-19T14:18:39;1.87;;;0.30;;
16975;SDS011;8604;48.148;-1.786;2022-08-19T14:21:08;1.07;;;0.30;;
16975;SDS011;8604;48.148;-1.786;2022-08-19T14:23:43;1.93;;;0.50;;
16975;SDS011;8604;48.148;-1.786;2022-08-19T14:26:13;1.23;;;0.50;;
16975;SDS011;8604;48.148;-1.786;2022-08-19T14:28:43;1.27;;;0.50;;
16975;SDS011;8604;48.148;-1.786;2022-08-19T14:31:13;0.40;;;0.40;;
16975;SDS011;8604;48.148;-1.786;2022-08-19T14:33:45;1.90;;;0.60;;
16975;SDS011;8604;48.148;-1.786;2022-08-19T14:36:13;2.13;;;0.60;;
16975;SDS011;8604;48.148;-1.786;2022-08-19T14:38:43;3.00;;;0.83;;
16975;SDS011;8604;48.148;-1.786;2022-08-19T14:41:13;1.50;;;0.60;;
16975;SDS011;8604;48.148;-1.786;2022-08-19T14:43:44;2.50;;;0.80;;
16975;SDS011;8604;48.148;-1.786;2022-08-19T14:46:15;3.30;;;0.90;;
16975;SDS011;8604;48.148;-1.786;2022-08-19T14:48:46;1.27;;;0.80;;
16975;SDS011;8604;48.148;-1.786;2022-08-19T14:51:18;2.47;;;1.10;;
16975;SDS011;8604;48.148;-1.786;2022-08-19T14:53:49;2.63;;;1.20;;
16975;SDS011;8604;48.148;-1.786;2022-08-19T14:56:19;3.63;;;1.33;;
16975;SDS011;8604;48.148;-1.786;2022-08-19T14:58:48;2.33;;;1.23;;
16975;SDS011;8604;48.148;-1.786;2022-08-19T15:01:18;2.03;;;1.10;;
16975;SDS011;8604;48.148;-1.786;2022-08-19T15:03:48;5.13;;;1.57;;
16975;SDS011;8604;48.148;-1.786;2022-08-19T15:06:20;2.60;;;1.27;;
16975;SDS011;8604;48.148;-1.786;2022-08-19T15:08:50;3.23;;;1.30;;
16975;SDS011;8604;48.148;-1.786;2022-08-19T15:11:23;2.90;;;1.47;;
16975;SDS011;8604;48.148;-1.786;2022-08-19T15:13:54;4.77;;;1.40;;
16975;SDS011;8604;48.148;-1.786;2022-08-19T15:16:23;2.80;;;1.60;;
16975;SDS011;8604;48.148;-1.786;2022-08-19T15:19:08;3.23;;;1.63;;
16975;SDS011;8604;48.148;-1.786;2022-08-19T15:21:38;4.67;;;1.40;;
16975;SDS011;8604;48.148;-1.786;2022-08-19T15:24:08;6.37;;;1.87;;